sensor_id;sensor_type;location;lat;lon;timestamp;pressure;altitude;pressure_sealevel;temperature;humidity
63096;BME280;49184;55.596;37.770;2023-06-04T00:01:27;99808.41;;;8.36;69.63
63096;BME280;49184;55.596;37.770;2023-06-04T00:03:53;99779.47;;;8.11;68.86
63096;BME280;49184;55.596;37.770;2023-06-04T00:06:19;99822.31;;;8.35;69.16
63096;BME280;49184;55.596;37.770;2023-06-04T00:08:45;99783.28;;;8.10;68.92
63096;BME280;49184;55.596;37.770;2023-06-04T00:11:11;99831.56;;;8.39;69.10
63096;BME280;49184;55.596;37.770;2023-06-04T00:13:37;99786.06;;;8.05;69.36
63096;BME280;49184;55.596;37.770;2023-06-04T00:16:03;99809.59;;;8.25;69.04
63096;BME280;49184;55.596;37.770;2023-06-04T00:18:30;99811.22;;;8.26;69.00
63096;BME280;49184;55.596;37.770;2023-06-04T00:20:59;99827.22;;;8.33;69.37
63096;BME280;49184;55.596;37.770;2023-06-04T00:23:25;99830.50;;;8.30;69.54
63096;BME280;49184;55.596;37.770;2023-06-04T00:25:51;99837.59;;;8.31;69.43
63096;BME280;49184;55.596;37.770;2023-06-04T00:28:17;99816.19;;;8.19;69.00
63096;BME280;49184;55.596;37.770;2023-06-04T00:30:43;99816.19;;;8.14;69.09
63096;BME280;49184;55.596;37.770;2023-06-04T00:33:09;99789.34;;;8.02;69.02
63096;BME280;49184;55.596;37.770;2023-06-04T00:35:34;99839.16;;;8.37;69.06
63096;BME280;49184;55.596;37.770;2023-06-04T00:38:00;99843.56;;;8.33;69.00
63096;BME280;49184;55.596;37.770;2023-06-04T00:40:26;99844.19;;;8.24;68.81
63096;BME280;49184;55.596;37.770;2023-06-04T00:42:52;99834.91;;;8.26;69.22
63096;BME280;49184;55.596;37.770;2023-06-04T00:45:18;99848.47;;;8.31;69.20
63096;BME280;49184;55.596;37.770;2023-06-04T00:47:45;99837.66;;;8.20;69.51
63096;BME280;49184;55.596;37.770;2023-06-04T00:50:11;99827.88;;;8.19;69.37
63096;BME280;49184;55.596;37.770;2023-06-04T00:52:37;99824.69;;;8.07;69.38
63096;BME280;49184;55.596;37.770;2023-06-04T00:55:03;99852.06;;;8.26;69.81
63096;BME280;49184;55.596;37.770;2023-06-04T00:57:30;99858.06;;;8.23;69.63
63096;BME280;49184;55.596;37.770;2023-06-04T00:59:56;99848.38;;;8.07;70.17
63096;BME280;49184;55.596;37.770;2023-06-04T01:02:44;99838.59;;;8.06;70.06
63096;BME280;49184;55.596;37.770;2023-06-04T01:08:31;99828.91;;;7.89;69.75
63096;BME280;49184;55.596;37.770;2023-06-04T01:11:03;99850.84;;;8.08;69.67
63096;BME280;49184;55.596;37.770;2023-06-04T01:13:29;99856.97;;;8.24;70.08
63096;BME280;49184;55.596;37.770;2023-06-04T01:15:55;99791.69;;;7.80;69.55
63096;BME280;49184;55.596;37.770;2023-06-04T01:18:33;99838.88;;;8.04;70.02
63096;BME280;49184;55.596;37.770;2023-06-04T01:21:06;99876.91;;;8.14;69.82
63096;BME280;49184;55.596;37.770;2023-06-04T01:23:51;99873.22;;;8.00;69.24
63096;BME280;49184;55.596;37.770;2023-06-04T01:26:28;99873.50;;;7.98;69.43
63096;BME280;49184;55.596;37.770;2023-06-04T01:28:56;99874.50;;;8.13;69.63
63096;BME280;49184;55.596;37.770;2023-06-04T01:31:23;99871.28;;;8.06;68.94
63096;BME280;49184;55.596;37.770;2023-06-04T01:33:53;99876.16;;;8.09;69.30
63096;BME280;49184;55.596;37.770;2023-06-04T01:36:20;99885.13;;;8.09;69.20
63096;BME280;49184;55.596;37.770;2023-06-04T01:38:46;99888.97;;;8.08;69.10
63096;BME280;49184;55.596;37.770;2023-06-04T01:41:12;99881.88;;;8.07;69.28
63096;BME280;49184;55.596;37.770;2023-06-04T01:43:43;99862.63;;;7.93;69.37
63096;BME280;49184;55.596;37.770;2023-06-04T01:46:10;99835.22;;;7.80;69.64
63096;BME280;49184;55.596;37.770;2023-06-04T01:48:48;99822.00;;;7.63;68.50
63096;BME280;49184;55.596;37.770;2023-06-04T01:51:17;99878.16;;;7.98;69.37
63096;BME280;49184;55.596;37.770;2023-06-04T01:53:43;99908.53;;;8.15;69.40
63096;BME280;49184;55.596;37.770;2023-06-04T01:56:21;99907.41;;;8.16;68.66
63096;BME280;49184;55.596;37.770;2023-06-04T01:58:50;99907.66;;;8.20;69.28
63096;BME280;49184;55.596;37.770;2023-06-04T02:07:54;99842.06;;;7.77;69.61
63096;BME280;49184;55.596;37.770;2023-06-04T02:10:40;99846.94;;;7.80;69.65
63096;BME280;49184;55.596;37.770;2023-06-04T02:13:06;99883.28;;;7.99;69.39
63096;BME280;49184;55.596;37.770;2023-06-04T02:15:32;99889.47;;;8.15;69.20
63096;BME280;49184;55.596;37.770;2023-06-04T02:18:00;99921.22;;;8.30;68.72
63096;BME280;49184;55.596;37.770;2023-06-04T02:20:59;99919.31;;;8.31;68.89
63096;BME280;49184;55.596;37.770;2023-06-04T02:23:26;99920.91;;;8.37;68.39
63096;BME280;49184;55.596;37.770;2023-06-04T02:25:53;99895.66;;;8.21;68.93
63096;BME280;49184;55.596;37.770;2023-06-04T02:28:31;99884.25;;;8.19;68.75
63096;BME280;49184;55.596;37.770;2023-06-04T02:31:00;99931.50;;;8.43;68.38
63096;BME280;49184;55.596;37.770;2023-06-04T02:33:26;99938.78;;;8.53;68.61
63096;BME280;49184;55.596;37.770;2023-06-04T02:35:52;99934.47;;;8.47;68.43
63096;BME280;49184;55.596;37.770;2023-06-04T02:38:17;99949.66;;;8.58;67.55
63096;BME280;49184;55.596;37.770;2023-06-04T02:40:43;99922.75;;;8.52;68.23
63096;BME280;49184;55.596;37.770;2023-06-04T02:43:11;99960.75;;;8.67;68.06
63096;BME280;49184;55.596;37.770;2023-06-04T02:45:37;99963.47;;;8.72;67.60
63096;BME280;49184;55.596;37.770;2023-06-04T02:48:03;99939.09;;;8.52;68.17
63096;BME280;49184;55.596;37.770;2023-06-04T02:50:29;99956.91;;;8.73;68.17
63096;BME280;49184;55.596;37.770;2023-06-04T02:52:55;99957.22;;;8.66;67.81
63096;BME280;49184;55.596;37.770;2023-06-04T02:55:21;99943.31;;;8.68;67.88
63096;BME280;49184;55.596;37.770;2023-06-04T02:57:47;99959.94;;;8.66;67.76
63096;BME280;49184;55.596;37.770;2023-06-04T03:00:14;99976.72;;;8.84;68.35
63096;BME280;49184;55.596;37.770;2023-06-04T03:02:47;99977.72;;;8.93;68.19
63096;BME280;49184;55.596;37.770;2023-06-04T03:05:16;99982.91;;;8.94;68.58
63096;BME280;49184;55.596;37.770;2023-06-04T03:07:44;99953.53;;;8.86;68.21
63096;BME280;49184;55.596;37.770;2023-06-04T03:10:12;99974.41;;;9.01;67.76
63096;BME280;49184;55.596;37.770;2023-06-04T03:12:39;99959.69;;;8.97;67.80
63096;BME280;49184;55.596;37.770;2023-06-04T03:15:05;99999.09;;;9.15;67.54
63096;BME280;49184;55.596;37.770;2023-06-04T03:17:32;99974.06;;;9.08;66.80
63096;BME280;49184;55.596;37.770;2023-06-04T03:19:58;99992.44;;;9.26;67.33
63096;BME280;49184;55.596;37.770;2023-06-04T03:22:24;99960.69;;;9.06;67.99
63096;BME280;49184;55.596;37.770;2023-06-04T03:24:54;100015.47;;;9.44;67.69
63096;BME280;49184;55.596;37.770;2023-06-04T03:27:26;100019.16;;;9.53;67.70
63096;BME280;49184;55.596;37.770;2023-06-04T03:30:01;99968.19;;;9.25;66.79
63096;BME280;49184;55.596;37.770;2023-06-04T03:32:36;100007.78;;;9.46;67.15
63096;BME280;49184;55.596;37.770;2023-06-04T03:35:03;100012.09;;;9.52;67.59
63096;BME280;49184;55.596;37.770;2023-06-04T03:37:31;100032.53;;;9.55;66.76
63096;BME280;49184;55.596;37.770;2023-06-04T03:40:22;99987.50;;;9.28;67.07
63096;BME280;49184;55.596;37.770;2023-06-04T03:42:57;100015.13;;;9.51;66.59
63096;BME280;49184;55.596;37.770;2023-06-04T03:45:52;100027.84;;;9.60;66.42
63096;BME280;49184;55.596;37.770;2023-06-04T03:48:18;100028.31;;;9.68;66.25
63096;BME280;49184;55.596;37.770;2023-06-04T03:50:44;100041.78;;;9.83;67.05
63096;BME280;49184;55.596;37.770;2023-06-04T03:53:13;100015.13;;;9.75;66.49
63096;BME280;49184;55.596;37.770;2023-06-04T03:55:40;100037.09;;;9.88;65.53
63096;BME280;49184;55.596;37.770;2023-06-04T03:58:07;100013.75;;;9.77;65.28
63096;BME280;49184;55.596;37.770;2023-06-04T04:00:37;100024.56;;;9.87;65.75
63096;BME280;49184;55.596;37.770;2023-06-04T04:03:03;100036.41;;;10.02;65.01
63096;BME280;49184;55.596;37.770;2023-06-04T04:05:31;100036.75;;;9.95;64.72
63096;BME280;49184;55.596;37.770;2023-06-04T04:07:57;100050.06;;;10.02;64.16
63096;BME280;49184;55.596;37.770;2023-06-04T04:10:27;100017.22;;;9.83;65.05
63096;BME280;49184;55.596;37.770;2023-06-04T04:12:53;100040.28;;;9.96;64.31
63096;BME280;49184;55.596;37.770;2023-06-04T04:15:21;100036.16;;;9.98;64.59
63096;BME280;49184;55.596;37.770;2023-06-04T04:17:48;100045.28;;;10.12;64.97
63096;BME280;49184;55.596;37.770;2023-06-04T04:20:15;100035.09;;;10.18;64.73
63096;BME280;49184;55.596;37.770;2023-06-04T04:22:48;100039.31;;;10.34;64.64
63096;BME280;49184;55.596;37.770;2023-06-04T04:25:15;100053.72;;;10.40;65.00
63096;BME280;49184;55.596;37.770;2023-06-04T04:27:41;100059.78;;;10.56;66.01
63096;BME280;49184;55.596;37.770;2023-06-04T04:30:12;100057.88;;;10.56;64.56
63096;BME280;49184;55.596;37.770;2023-06-04T04:32:41;100053.44;;;10.61;64.45
63096;BME280;49184;55.596;37.770;2023-06-04T04:35:17;100060.38;;;10.72;64.36
63096;BME280;49184;55.596;37.770;2023-06-04T04:37:45;100052.91;;;10.77;63.31
63096;BME280;49184;55.596;37.770;2023-06-04T04:40:13;100058.03;;;10.84;64.04
63096;BME280;49184;55.596;37.770;2023-06-04T04:42:43;100060.97;;;10.88;62.57
63096;BME280;49184;55.596;37.770;2023-06-04T04:45:12;100072.28;;;10.81;62.02
63096;BME280;49184;55.596;37.770;2023-06-04T04:47:40;100070.78;;;10.89;61.91
63096;BME280;49184;55.596;37.770;2023-06-04T04:50:10;100059.84;;;10.89;62.47
63096;BME280;49184;55.596;37.770;2023-06-04T04:52:36;100037.53;;;10.81;62.64
63096;BME280;49184;55.596;37.770;2023-06-04T04:55:02;100068.00;;;10.94;61.60
63096;BME280;49184;55.596;37.770;2023-06-04T04:57:31;100075.41;;;10.93;60.73
63096;BME280;49184;55.596;37.770;2023-06-04T04:59:58;100063.66;;;10.93;61.37
63096;BME280;49184;55.596;37.770;2023-06-04T05:02:24;100065.75;;;10.96;61.91
63096;BME280;49184;55.596;37.770;2023-06-04T05:04:52;100068.66;;;11.04;61.59
63096;BME280;49184;55.596;37.770;2023-06-04T05:07:22;100047.13;;;10.98;60.11
63096;BME280;49184;55.596;37.770;2023-06-04T05:10:00;100005.63;;;10.77;60.15
63096;BME280;49184;55.596;37.770;2023-06-04T05:12:30;100077.94;;;11.22;59.59
63096;BME280;49184;55.596;37.770;2023-06-04T05:14:58;100087.19;;;11.26;60.47
63096;BME280;49184;55.596;37.770;2023-06-04T05:17:24;100055.31;;;11.17;61.19
63096;BME280;49184;55.596;37.770;2023-06-04T05:19:59;100009.63;;;10.98;59.70
63096;BME280;49184;55.596;37.770;2023-06-04T05:23:13;100078.72;;;11.42;58.95
63096;BME280;49184;55.596;37.770;2023-06-04T05:25:41;100076.25;;;11.59;58.91
63096;BME280;49184;55.596;37.770;2023-06-04T05:28:53;100086.50;;;11.81;60.40
63096;BME280;49184;55.596;37.770;2023-06-04T05:31:20;100077.72;;;11.84;58.80
63096;BME280;49184;55.596;37.770;2023-06-04T05:34:03;100055.13;;;11.92;59.19
63096;BME280;49184;55.596;37.770;2023-06-04T05:36:36;100062.59;;;11.87;57.90
63096;BME280;49184;55.596;37.770;2023-06-04T05:42:41;100086.66;;;12.04;56.29
63096;BME280;49184;55.596;37.770;2023-06-04T05:45:40;100025.63;;;11.70;55.97
63096;BME280;49184;55.596;37.770;2023-06-04T05:48:36;100032.44;;;11.73;56.14
63096;BME280;49184;55.596;37.770;2023-06-04T05:51:12;100079.25;;;12.04;55.80
63096;BME280;49184;55.596;37.770;2023-06-04T05:56:16;100097.53;;;12.22;54.99
63096;BME280;49184;55.596;37.770;2023-06-04T05:58:43;100090.13;;;12.37;54.37
63096;BME280;49184;55.596;37.770;2023-06-04T06:01:10;100093.44;;;12.61;56.04
63096;BME280;49184;55.596;37.770;2023-06-04T06:03:37;100084.50;;;12.69;55.38
63096;BME280;49184;55.596;37.770;2023-06-04T06:06:03;100099.75;;;12.62;53.43
63096;BME280;49184;55.596;37.770;2023-06-04T06:08:31;100084.94;;;12.49;56.49
63096;BME280;49184;55.596;37.770;2023-06-04T06:10:58;100094.06;;;12.44;55.10
63096;BME280;49184;55.596;37.770;2023-06-04T06:13:24;100104.00;;;12.54;55.17
63096;BME280;49184;55.596;37.770;2023-06-04T06:15:50;100078.53;;;12.54;55.42
63096;BME280;49184;55.596;37.770;2023-06-04T06:18:18;100071.91;;;12.55;53.54
63096;BME280;49184;55.596;37.770;2023-06-04T06:20:54;100102.94;;;12.91;53.67
63096;BME280;49184;55.596;37.770;2023-06-04T06:23:26;100064.34;;;12.74;52.73
63096;BME280;49184;55.596;37.770;2023-06-04T06:25:52;100093.44;;;12.98;52.08
63096;BME280;49184;55.596;37.770;2023-06-04T06:28:25;100110.09;;;13.15;52.74
63096;BME280;49184;55.596;37.770;2023-06-04T06:30:52;100060.69;;;13.01;50.80
63096;BME280;49184;55.596;37.770;2023-06-04T06:33:27;100075.91;;;13.21;51.77
63096;BME280;49184;55.596;37.770;2023-06-04T06:35:53;100092.59;;;13.25;51.65
63096;BME280;49184;55.596;37.770;2023-06-04T06:38:20;100091.91;;;13.42;49.40
63096;BME280;49184;55.596;37.770;2023-06-04T06:40:52;100095.81;;;13.49;49.06
63096;BME280;49184;55.596;37.770;2023-06-04T06:43:18;100100.75;;;13.61;49.04
63096;BME280;49184;55.596;37.770;2023-06-04T06:45:44;100110.97;;;13.69;49.93
63096;BME280;49184;55.596;37.770;2023-06-04T06:48:10;100079.56;;;13.61;49.41
63096;BME280;49184;55.596;37.770;2023-06-04T06:50:36;100073.50;;;13.51;47.79
63096;BME280;49184;55.596;37.770;2023-06-04T06:53:02;100086.75;;;13.71;48.22
63096;BME280;49184;55.596;37.770;2023-06-04T06:55:28;100093.63;;;13.91;49.83
63096;BME280;49184;55.596;37.770;2023-06-04T06:57:54;100093.00;;;13.94;49.46
63096;BME280;49184;55.596;37.770;2023-06-04T07:00:20;100085.13;;;14.01;50.31
63096;BME280;49184;55.596;37.770;2023-06-04T07:02:47;100099.13;;;13.91;47.86
63096;BME280;49184;55.596;37.770;2023-06-04T07:05:14;100070.28;;;13.49;47.85
63096;BME280;49184;55.596;37.770;2023-06-04T07:07:42;100110.34;;;13.72;48.33
63096;BME280;49184;55.596;37.770;2023-06-04T07:10:15;100096.00;;;13.84;47.96
63096;BME280;49184;55.596;37.770;2023-06-04T07:12:50;100080.78;;;14.09;47.08
63096;BME280;49184;55.596;37.770;2023-06-04T07:15:34;100102.41;;;14.42;48.36
63096;BME280;49184;55.596;37.770;2023-06-04T07:18:00;100100.03;;;14.66;45.39
63096;BME280;49184;55.596;37.770;2023-06-04T07:20:26;100092.28;;;14.68;46.19
63096;BME280;49184;55.596;37.770;2023-06-04T07:22:52;100078.31;;;14.47;45.99
63096;BME280;49184;55.596;37.770;2023-06-04T07:25:19;100098.66;;;14.38;46.33
63096;BME280;49184;55.596;37.770;2023-06-04T07:30:26;100098.41;;;14.17;48.37
63096;BME280;49184;55.596;37.770;2023-06-04T07:33:38;100114.00;;;14.30;45.19
63096;BME280;49184;55.596;37.770;2023-06-04T07:36:17;100086.31;;;14.26;45.80
63096;BME280;49184;55.596;37.770;2023-06-04T07:38:44;100116.44;;;14.31;44.73
63096;BME280;49184;55.596;37.770;2023-06-04T07:41:10;100097.91;;;14.06;43.74
63096;BME280;49184;55.596;37.770;2023-06-04T07:43:37;100094.13;;;13.93;44.51
63096;BME280;49184;55.596;37.770;2023-06-04T07:46:03;100123.03;;;14.22;45.95
63096;BME280;49184;55.596;37.770;2023-06-04T07:48:29;100095.59;;;14.39;47.15
63096;BME280;49184;55.596;37.770;2023-06-04T07:50:59;100088.97;;;14.49;45.79
63096;BME280;49184;55.596;37.770;2023-06-04T07:53:25;100088.53;;;14.55;44.45
63096;BME280;49184;55.596;37.770;2023-06-04T07:55:52;100102.66;;;14.71;45.09
63096;BME280;49184;55.596;37.770;2023-06-04T07:58:18;100087.94;;;14.67;43.83
63096;BME280;49184;55.596;37.770;2023-06-04T08:00:45;100100.53;;;14.60;42.59
63096;BME280;49184;55.596;37.770;2023-06-04T08:03:12;100114.28;;;14.60;44.06
63096;BME280;49184;55.596;37.770;2023-06-04T08:05:42;100100.69;;;14.63;43.72
63096;BME280;49184;55.596;37.770;2023-06-04T08:08:08;100090.53;;;14.98;45.13
63096;BME280;49184;55.596;37.770;2023-06-04T08:10:34;100083.91;;;15.08;44.67
63096;BME280;49184;55.596;37.770;2023-06-04T08:13:00;100082.25;;;14.90;41.09
63096;BME280;49184;55.596;37.770;2023-06-04T08:15:26;100074.97;;;14.76;43.44
63096;BME280;49184;55.596;37.770;2023-06-04T08:18:12;100110.28;;;14.83;42.86
63096;BME280;49184;55.596;37.770;2023-06-04T08:20:58;100085.66;;;14.61;44.57
63096;BME280;49184;55.596;37.770;2023-06-04T08:23:38;100117.28;;;14.49;40.26
63096;BME280;49184;55.596;37.770;2023-06-04T08:26:24;100085.06;;;14.32;40.57
63096;BME280;49184;55.596;37.770;2023-06-04T08:29:03;100104.91;;;14.61;40.59
63096;BME280;49184;55.596;37.770;2023-06-04T08:31:36;100115.00;;;15.00;41.17
63096;BME280;49184;55.596;37.770;2023-06-04T08:34:15;100118.56;;;15.09;39.13
63096;BME280;49184;55.596;37.770;2023-06-04T08:36:45;100111.59;;;15.03;40.21
63096;BME280;49184;55.596;37.770;2023-06-04T08:39:12;100120.50;;;14.91;39.55
63096;BME280;49184;55.596;37.770;2023-06-04T08:41:49;100116.41;;;14.80;40.67
63096;BME280;49184;55.596;37.770;2023-06-04T08:44:18;100105.56;;;14.75;41.35
63096;BME280;49184;55.596;37.770;2023-06-04T08:46:44;100097.63;;;14.73;39.01
63096;BME280;49184;55.596;37.770;2023-06-04T08:49:14;100111.09;;;14.75;39.00
63096;BME280;49184;55.596;37.770;2023-06-04T08:51:42;100112.72;;;14.85;40.16
63096;BME280;49184;55.596;37.770;2023-06-04T08:54:08;100091.34;;;14.82;39.85
63096;BME280;49184;55.596;37.770;2023-06-04T08:56:35;100125.03;;;14.96;40.54
63096;BME280;49184;55.596;37.770;2023-06-04T08:59:03;100118.06;;;14.90;38.80
63096;BME280;49184;55.596;37.770;2023-06-04T09:01:31;100112.91;;;14.97;39.93
63096;BME280;49184;55.596;37.770;2023-06-04T09:03:58;100101.06;;;15.05;37.64
63096;BME280;49184;55.596;37.770;2023-06-04T09:06:28;100108.69;;;15.34;37.32
63096;BME280;49184;55.596;37.770;2023-06-04T09:08:58;100115.78;;;15.61;37.54
63096;BME280;49184;55.596;37.770;2023-06-04T09:11:27;100110.59;;;15.77;37.01
63096;BME280;49184;55.596;37.770;2023-06-04T09:13:59;100097.84;;;16.02;34.98
63096;BME280;49184;55.596;37.770;2023-06-04T09:16:26;100108.69;;;16.16;36.95
63096;BME280;49184;55.596;37.770;2023-06-04T09:18:53;100090.75;;;15.92;36.70
63096;BME280;49184;55.596;37.770;2023-06-04T09:21:20;100118.19;;;15.80;35.85
63096;BME280;49184;55.596;37.770;2023-06-04T09:23:47;100106.34;;;15.62;36.32
63096;BME280;49184;55.596;37.770;2023-06-04T09:26:13;100129.56;;;15.52;36.87
63096;BME280;49184;55.596;37.770;2023-06-04T09:28:42;100124.72;;;15.41;37.68
63096;BME280;49184;55.596;37.770;2023-06-04T09:31:16;100107.38;;;15.23;38.06
63096;BME280;49184;55.596;37.770;2023-06-04T09:33:48;100108.84;;;15.12;39.30
63096;BME280;49184;55.596;37.770;2023-06-04T09:36:16;100134.13;;;15.05;38.51
63096;BME280;49184;55.596;37.770;2023-06-04T09:38:42;100140.41;;;14.88;39.23
63096;BME280;49184;55.596;37.770;2023-06-04T09:41:21;100123.38;;;14.69;39.28
63096;BME280;49184;55.596;37.770;2023-06-04T09:43:50;100126.63;;;14.79;39.04
63096;BME280;49184;55.596;37.770;2023-06-04T09:46:17;100107.34;;;14.79;38.29
63096;BME280;49184;55.596;37.770;2023-06-04T09:48:44;100140.91;;;14.99;39.29
63096;BME280;49184;55.596;37.770;2023-06-04T09:51:12;100125.69;;;15.01;39.13
63096;BME280;49184;55.596;37.770;2023-06-04T09:53:40;100127.63;;;15.01;38.58
63096;BME280;49184;55.596;37.770;2023-06-04T09:56:07;100122.13;;;15.10;39.13
63096;BME280;49184;55.596;37.770;2023-06-04T09:58:37;100124.56;;;15.20;37.73
63096;BME280;49184;55.596;37.770;2023-06-04T10:01:05;100114.03;;;15.13;40.15
63096;BME280;49184;55.596;37.770;2023-06-04T10:03:35;100135.09;;;15.26;39.58
63096;BME280;49184;55.596;37.770;2023-06-04T10:06:05;100130.38;;;15.36;39.22
63096;BME280;49184;55.596;37.770;2023-06-04T10:08:33;100136.53;;;15.41;37.94
63096;BME280;49184;55.596;37.770;2023-06-04T10:11:02;100110.78;;;15.28;38.10
63096;BME280;49184;55.596;37.770;2023-06-04T10:13:31;100113.69;;;15.41;37.80
63096;BME280;49184;55.596;37.770;2023-06-04T10:15:58;100121.94;;;15.58;38.18
63096;BME280;49184;55.596;37.770;2023-06-04T10:18:27;100122.75;;;15.59;38.36
63096;BME280;49184;55.596;37.770;2023-06-04T10:20:55;100102.63;;;15.76;38.56
63096;BME280;49184;55.596;37.770;2023-06-04T10:23:24;100119.81;;;15.90;40.20
63096;BME280;49184;55.596;37.770;2023-06-04T10:25:51;100110.91;;;15.76;37.36
63096;BME280;49184;55.596;37.770;2023-06-04T10:28:20;100115.28;;;15.77;39.92
63096;BME280;49184;55.596;37.770;2023-06-04T10:30:48;100120.00;;;15.76;37.09
63096;BME280;49184;55.596;37.770;2023-06-04T10:33:20;100080.59;;;15.58;39.97
63096;BME280;49184;55.596;37.770;2023-06-04T10:35:50;100091.31;;;15.68;40.06
63096;BME280;49184;55.596;37.770;2023-06-04T10:38:17;100090.16;;;15.52;38.43
63096;BME280;49184;55.596;37.770;2023-06-04T10:40:44;100104.44;;;15.54;38.57
63096;BME280;49184;55.596;37.770;2023-06-04T10:43:11;100124.72;;;15.41;37.70
63096;BME280;49184;55.596;37.770;2023-06-04T10:45:38;100110.63;;;15.34;35.33
63096;BME280;49184;55.596;37.770;2023-06-04T10:48:11;100090.16;;;15.61;37.50
63096;BME280;49184;55.596;37.770;2023-06-04T10:50:51;100112.66;;;15.89;36.53
63096;BME280;49184;55.596;37.770;2023-06-04T10:53:18;100095.56;;;16.13;36.85
63096;BME280;49184;55.596;37.770;2023-06-04T10:55:49;100107.59;;;16.38;34.78
63096;BME280;49184;55.596;37.770;2023-06-04T10:58:15;100106.78;;;16.67;36.35
63096;BME280;49184;55.596;37.770;2023-06-04T11:00:43;100110.69;;;16.96;35.88
63096;BME280;49184;55.596;37.770;2023-06-04T11:03:12;100086.81;;;16.91;33.65
63096;BME280;49184;55.596;37.770;2023-06-04T11:05:43;100104.28;;;17.04;32.09
63096;BME280;49184;55.596;37.770;2023-06-04T11:08:10;100111.75;;;16.82;34.20
63096;BME280;49184;55.596;37.770;2023-06-04T11:10:45;100106.78;;;16.67;34.36
63096;BME280;49184;55.596;37.770;2023-06-04T11:13:11;100103.66;;;16.48;36.18
63096;BME280;49184;55.596;37.770;2023-06-04T11:18:05;100122.66;;;16.11;35.88
63096;BME280;49184;55.596;37.770;2023-06-04T11:20:33;100093.19;;;15.94;37.44
63096;BME280;49184;55.596;37.770;2023-06-04T11:23:00;100119.19;;;16.23;37.83
63096;BME280;49184;55.596;37.770;2023-06-04T11:25:29;100120.16;;;16.27;37.28
63096;BME280;49184;55.596;37.770;2023-06-04T11:27:58;100100.72;;;16.14;37.78
63096;BME280;49184;55.596;37.770;2023-06-04T11:30:24;100123.09;;;16.21;36.67
63096;BME280;49184;55.596;37.770;2023-06-04T11:33:00;100120.22;;;16.09;35.03
63096;BME280;49184;55.596;37.770;2023-06-04T11:35:28;100117.81;;;15.99;35.41
63096;BME280;49184;55.596;37.770;2023-06-04T11:37:55;100120.97;;;16.18;35.95
63096;BME280;49184;55.596;37.770;2023-06-04T11:40:22;100114.28;;;16.28;34.16
63096;BME280;49184;55.596;37.770;2023-06-04T11:42:51;100117.94;;;16.50;33.73
63096;BME280;49184;55.596;37.770;2023-06-04T11:45:19;100116.53;;;16.94;35.09
63096;BME280;49184;55.596;37.770;2023-06-04T11:47:54;100125.56;;;17.03;33.60
63096;BME280;49184;55.596;37.770;2023-06-04T11:50:27;100097.03;;;16.70;30.99
63096;BME280;49184;55.596;37.770;2023-06-04T11:52:57;100101.81;;;16.52;32.74
63096;BME280;49184;55.596;37.770;2023-06-04T11:55:23;100118.44;;;16.43;34.08
63096;BME280;49184;55.596;37.770;2023-06-04T11:57:50;100121.47;;;16.20;33.50
63096;BME280;49184;55.596;37.770;2023-06-04T12:00:17;100122.63;;;16.19;34.21
63096;BME280;49184;55.596;37.770;2023-06-04T12:02:53;100118.41;;;16.13;35.38
63096;BME280;49184;55.596;37.770;2023-06-04T12:05:23;100127.06;;;15.94;35.17
63096;BME280;49184;55.596;37.770;2023-06-04T12:07:51;100121.41;;;15.91;35.96
63096;BME280;49184;55.596;37.770;2023-06-04T12:10:19;100121.41;;;15.91;36.54
63096;BME280;49184;55.596;37.770;2023-06-04T12:13:03;100112.50;;;15.85;35.22
63096;BME280;49184;55.596;37.770;2023-06-04T12:15:30;100123.00;;;16.01;36.11
63096;BME280;49184;55.596;37.770;2023-06-04T12:17:57;100125.75;;;16.01;35.88
63096;BME280;49184;55.596;37.770;2023-06-04T12:20:40;100121.50;;;16.12;35.48
63096;BME280;49184;55.596;37.770;2023-06-04T12:23:07;100136.91;;;16.51;34.09
63096;BME280;49184;55.596;37.770;2023-06-04T12:25:34;100090.66;;;16.48;34.07
63096;BME280;49184;55.596;37.770;2023-06-04T12:28:03;100116.91;;;16.54;35.57
63096;BME280;49184;55.596;37.770;2023-06-04T12:30:39;100129.25;;;16.57;34.66
63096;BME280;49184;55.596;37.770;2023-06-04T12:33:05;100117.03;;;16.37;33.98
63096;BME280;49184;55.596;37.770;2023-06-04T12:35:34;100127.63;;;16.26;34.34
63096;BME280;49184;55.596;37.770;2023-06-04T12:38:03;100120.66;;;16.20;35.96
63096;BME280;49184;55.596;37.770;2023-06-04T12:40:30;100123.22;;;16.25;35.43
63096;BME280;49184;55.596;37.770;2023-06-04T12:42:57;100119.38;;;16.17;36.55
63096;BME280;49184;55.596;37.770;2023-06-04T12:45:38;100083.44;;;15.96;36.98
63096;BME280;49184;55.596;37.770;2023-06-04T12:48:04;100107.03;;;16.15;35.52
63096;BME280;49184;55.596;37.770;2023-06-04T12:50:30;100109.28;;;16.21;35.19
63096;BME280;49184;55.596;37.770;2023-06-04T12:53:08;100120.56;;;16.46;36.90
63096;BME280;49184;55.596;37.770;2023-06-04T12:55:34;100126.59;;;16.39;36.42
63096;BME280;49184;55.596;37.770;2023-06-04T12:58:01;100105.78;;;16.42;36.85
63096;BME280;49184;55.596;37.770;2023-06-04T13:00:29;100120.44;;;16.63;35.72
63096;BME280;49184;55.596;37.770;2023-06-04T13:02:57;100124.19;;;16.88;37.64
63096;BME280;49184;55.596;37.770;2023-06-04T13:05:25;100120.44;;;16.93;36.30
63096;BME280;49184;55.596;37.770;2023-06-04T13:07:51;100093.16;;;16.91;34.34
63096;BME280;49184;55.596;37.770;2023-06-04T13:10:20;100097.00;;;16.99;34.84
63096;BME280;49184;55.596;37.770;2023-06-04T13:12:48;100117.22;;;17.33;35.07
63096;BME280;49184;55.596;37.770;2023-06-04T13:15:15;100108.25;;;17.36;33.30
63096;BME280;49184;55.596;37.770;2023-06-04T13:17:43;100102.78;;;17.48;33.40
63096;BME280;49184;55.596;37.770;2023-06-04T13:20:10;100094.81;;;17.47;33.26